DLH6VX EDDF-ESSA
Flight info
| Callsign | DLH6VX |
|---|---|
| Flight time | 1h 44m |
| Altitude | 37000 |
| Route | MARUN3W/25C MARUN Y150 TOLGI DCT OBATU DCT BERIM DCT ROSOK DCT SONAL DCT VIBAR/N0388F270 Z227 NILUG |
| Aircraft | A321/M-SDE2E3FGIJ1LORWXYZ/HB1 |
Departure
| Time | 2026-05-04 19:40 |
|---|---|
| Airport | Frankfurt Main Airport (EDDF) |
Arrival
| Time | 2026-05-04 21:24 |
|---|---|
| Airport | Stockholm-Arlanda Airport (ESSA) |
| Time | Latitude | Longitude | Altitude | Speed | Heading |
|---|---|---|---|---|---|
| 2026-05-04 18:59 | 50.04677 | 8.56043 | 356 ft | 0 kts | 340° |
| 2026-05-04 19:25 | 50.04672 | 8.56046 | 362 ft | 3 kts | 340° |
| 2026-05-04 19:25 | 50.04647 | 8.56060 | 361 ft | 4 kts | 340° |
| 2026-05-04 19:26 | 50.04626 | 8.56072 | 360 ft | 3 kts | 339° |
| 2026-05-04 19:26 | 50.04604 | 8.56092 | 361 ft | 4 kts | 307° |
| 2026-05-04 19:26 | 50.04596 | 8.56127 | 358 ft | 4 kts | 262° |
| 2026-05-04 19:26 | 50.04598 | 8.56147 | 358 ft | 4 kts | 251° |
| 2026-05-04 19:27 | 50.04589 | 8.56108 | 358 ft | 4 kts | 249° |
| 2026-05-04 19:27 | 50.04579 | 8.56068 | 359 ft | 4 kts | 249° |
| 2026-05-04 19:27 | 50.04574 | 8.56046 | 359 ft | 0 kts | 250° |
| 2026-05-04 19:30 | 50.04572 | 8.56038 | 360 ft | 2 kts | 250° |
| 2026-05-04 19:30 | 50.04555 | 8.55985 | 362 ft | 7 kts | 233° |
| 2026-05-04 19:31 | 50.04514 | 8.55951 | 359 ft | 7 kts | 198° |
| 2026-05-04 19:31 | 50.04450 | 8.55918 | 360 ft | 12 kts | 198° |
| 2026-05-04 19:31 | 50.04371 | 8.55916 | 361 ft | 12 kts | 167° |
| 2026-05-04 19:31 | 50.04307 | 8.55949 | 357 ft | 6 kts | 161° |
| 2026-05-04 19:32 | 50.04246 | 8.55944 | 361 ft | 9 kts | 211° |
| 2026-05-04 19:32 | 50.04185 | 8.55917 | 353 ft | 11 kts | 167° |
| 2026-05-04 19:32 | 50.04113 | 8.55958 | 356 ft | 13 kts | 160° |
| 2026-05-04 19:32 | 50.04074 | 8.56045 | 356 ft | 10 kts | 85° |
| 2026-05-04 19:33 | 50.04098 | 8.56163 | 360 ft | 14 kts | 70° |
| 2026-05-04 19:33 | 50.04135 | 8.56312 | 355 ft | 14 kts | 69° |
| 2026-05-04 19:33 | 50.04176 | 8.56484 | 358 ft | 20 kts | 70° |
| 2026-05-04 19:33 | 50.04213 | 8.56639 | 362 ft | 11 kts | 69° |
| 2026-05-04 19:34 | 50.04235 | 8.56731 | 360 ft | 10 kts | 70° |
| 2026-05-04 19:34 | 50.04264 | 8.56854 | 362 ft | 15 kts | 69° |
| 2026-05-04 19:34 | 50.04305 | 8.57024 | 361 ft | 16 kts | 69° |
| 2026-05-04 19:34 | 50.04350 | 8.57215 | 362 ft | 19 kts | 69° |
| 2026-05-04 19:35 | 50.04394 | 8.57398 | 367 ft | 14 kts | 69° |
| 2026-05-04 19:35 | 50.04418 | 8.57498 | 365 ft | 0 kts | 69° |
| 2026-05-04 19:36 | 50.04422 | 8.57514 | 363 ft | 4 kts | 70° |
| 2026-05-04 19:37 | 50.04428 | 8.57564 | 369 ft | 4 kts | 88° |
| 2026-05-04 19:37 | 50.04427 | 8.57582 | 364 ft | 0 kts | 97° |
| 2026-05-04 19:37 | 50.04426 | 8.57588 | 364 ft | 2 kts | 101° |
| 2026-05-04 19:37 | 50.04412 | 8.57626 | 370 ft | 6 kts | 128° |
| 2026-05-04 19:38 | 50.04385 | 8.57656 | 365 ft | 0 kts | 155° |
| 2026-05-04 19:38 | 50.04382 | 8.57658 | 366 ft | 1 kts | 155° |
| 2026-05-04 19:38 | 50.04359 | 8.57672 | 365 ft | 8 kts | 160° |
| 2026-05-04 19:39 | 50.04294 | 8.57702 | 365 ft | 7 kts | 176° |
| 2026-05-04 19:39 | 50.04265 | 8.57659 | 362 ft | 5 kts | 247° |
| 2026-05-04 19:39 | 50.04263 | 8.57651 | 362 ft | 0 kts | 249° |
| 2026-05-04 19:39 | 50.04250 | 8.57597 | 366 ft | 15 kts | 250° |
| 2026-05-04 19:40 | 50.04119 | 8.57050 | 366 ft | 93 kts | 250° |
| 2026-05-04 19:40 | 50.03934 | 8.56270 | 358 ft | 138 kts | 249° |
| 2026-05-04 19:40 | 50.03567 | 8.54698 | 770 ft | 155 kts | 251° |
| 2026-05-04 19:40 | 50.03180 | 8.53129 | 1530 ft | 157 kts | 249° |
| 2026-05-04 19:41 | 50.02758 | 8.51528 | 2118 ft | 167 kts | 251° |
| 2026-05-04 19:41 | 50.02202 | 8.49802 | 2436 ft | 189 kts | 232° |
| 2026-05-04 19:41 | 50.01147 | 8.48461 | 2772 ft | 208 kts | 207° |
| 2026-05-04 19:41 | 49.99707 | 8.47899 | 3300 ft | 215 kts | 184° |
| 2026-05-04 19:42 | 49.98253 | 8.47673 | 4001 ft | 211 kts | 187° |
| 2026-05-04 19:42 | 49.96790 | 8.47317 | 4717 ft | 209 kts | 190° |
| 2026-05-04 19:42 | 49.95369 | 8.46773 | 5263 ft | 216 kts | 197° |
| 2026-05-04 19:42 | 49.93868 | 8.46035 | 5497 ft | 239 kts | 197° |
| 2026-05-04 19:43 | 49.92283 | 8.45141 | 6164 ft | 244 kts | 210° |
| 2026-05-04 19:43 | 49.91084 | 8.43299 | 6969 ft | 247 kts | 239° |
| 2026-05-04 19:43 | 49.90610 | 8.40734 | 7754 ft | 253 kts | 267° |
| 2026-05-04 19:43 | 49.90994 | 8.38053 | 8536 ft | 262 kts | 295° |
| 2026-05-04 19:44 | 49.92223 | 8.35942 | 9290 ft | 272 kts | 326° |
| 2026-05-04 19:44 | 49.93976 | 8.34660 | 9823 ft | 289 kts | 334° |
| 2026-05-04 19:44 | 49.95877 | 8.33420 | 10188 ft | 306 kts | 334° |
| 2026-05-04 19:44 | 49.97905 | 8.32116 | 10365 ft | 329 kts | 335° |
| 2026-05-04 19:45 | 50.00083 | 8.30722 | 10722 ft | 342 kts | 335° |
| 2026-05-04 19:45 | 50.02344 | 8.29449 | 11318 ft | 349 kts | 343° |
| 2026-05-04 19:45 | 50.04768 | 8.28899 | 11965 ft | 356 kts | 356° |
| 2026-05-04 19:45 | 50.07252 | 8.29195 | 12620 ft | 362 kts | 9° |
| 2026-05-04 19:46 | 50.09683 | 8.30300 | 13271 ft | 366 kts | 18° |
| 2026-05-04 19:46 | 50.12108 | 8.31585 | 13917 ft | 370 kts | 17° |
| 2026-05-04 19:46 | 50.14535 | 8.32863 | 14503 ft | 373 kts | 17° |
| 2026-05-04 19:46 | 50.17017 | 8.34163 | 15089 ft | 376 kts | 17° |
| 2026-05-04 19:47 | 50.19509 | 8.35465 | 15679 ft | 379 kts | 17° |
| 2026-05-04 19:47 | 50.22027 | 8.36781 | 16254 ft | 383 kts | 17° |
| 2026-05-04 19:47 | 50.24565 | 8.38111 | 16835 ft | 387 kts | 17° |
| 2026-05-04 19:47 | 50.27128 | 8.39460 | 17406 ft | 390 kts | 18° |
| 2026-05-04 19:48 | 50.29672 | 8.40803 | 17956 ft | 393 kts | 18° |
| 2026-05-04 19:48 | 50.32276 | 8.42198 | 18464 ft | 397 kts | 18° |
| 2026-05-04 19:48 | 50.35266 | 8.43827 | 19025 ft | 401 kts | 18° |
| 2026-05-04 19:48 | 50.37960 | 8.45308 | 19527 ft | 403 kts | 18° |
| 2026-05-04 19:49 | 50.40619 | 8.46771 | 20017 ft | 407 kts | 18° |
| 2026-05-04 19:49 | 50.43414 | 8.48306 | 20515 ft | 410 kts | 18° |
| 2026-05-04 19:49 | 50.45998 | 8.49721 | 20967 ft | 413 kts | 18° |
| 2026-05-04 19:49 | 50.48699 | 8.51283 | 21415 ft | 416 kts | 24° |
| 2026-05-04 19:50 | 50.51204 | 8.53600 | 21840 ft | 420 kts | 32° |
| 2026-05-04 19:50 | 50.53702 | 8.56127 | 22293 ft | 423 kts | 33° |
| 2026-05-04 19:50 | 50.56146 | 8.58617 | 22745 ft | 426 kts | 33° |
| 2026-05-04 19:50 | 50.58632 | 8.61162 | 23194 ft | 428 kts | 33° |
| 2026-05-04 19:51 | 50.61137 | 8.63729 | 23626 ft | 430 kts | 33° |
| 2026-05-04 19:51 | 50.63653 | 8.66304 | 23989 ft | 433 kts | 32° |
| 2026-05-04 19:51 | 50.66190 | 8.68894 | 24356 ft | 436 kts | 32° |
| 2026-05-04 19:51 | 50.68739 | 8.71499 | 24717 ft | 438 kts | 32° |
| 2026-05-04 19:52 | 50.71303 | 8.74128 | 25084 ft | 441 kts | 32° |
| 2026-05-04 19:52 | 50.73884 | 8.76777 | 25440 ft | 443 kts | 32° |
| 2026-05-04 19:52 | 50.76476 | 8.79442 | 25808 ft | 446 kts | 32° |
| 2026-05-04 19:52 | 50.79084 | 8.82124 | 26162 ft | 449 kts | 32° |
| 2026-05-04 19:53 | 50.81705 | 8.84823 | 26521 ft | 451 kts | 32° |
| 2026-05-04 19:53 | 50.84341 | 8.87537 | 26881 ft | 453 kts | 32° |
| 2026-05-04 19:53 | 50.86096 | 8.89345 | 27113 ft | 455 kts | 32° |
| 2026-05-04 19:53 | 50.88938 | 8.92273 | 27485 ft | 458 kts | 32° |
| 2026-05-04 19:54 | 50.91718 | 8.95145 | 27845 ft | 460 kts | 32° |
| 2026-05-04 19:54 | 50.94299 | 8.97821 | 28166 ft | 463 kts | 33° |
| 2026-05-04 19:54 | 50.97000 | 9.00629 | 28511 ft | 465 kts | 33° |
| 2026-05-04 19:54 | 50.99713 | 9.03453 | 28858 ft | 468 kts | 32° |
| 2026-05-04 19:55 | 51.02445 | 9.06302 | 29153 ft | 471 kts | 32° |
| 2026-05-04 19:55 | 51.05193 | 9.09167 | 29464 ft | 474 kts | 32° |
| 2026-05-04 19:55 | 51.07960 | 9.12051 | 29782 ft | 477 kts | 32° |
| 2026-05-04 19:55 | 51.10744 | 9.14954 | 30093 ft | 480 kts | 32° |
| 2026-05-04 19:56 | 51.13539 | 9.17876 | 30358 ft | 482 kts | 32° |
| 2026-05-04 19:56 | 51.16350 | 9.20817 | 30622 ft | 484 kts | 32° |
| 2026-05-04 19:56 | 51.19171 | 9.23773 | 30884 ft | 486 kts | 32° |
| 2026-05-04 19:56 | 51.22001 | 9.26749 | 31150 ft | 488 kts | 32° |
| 2026-05-04 19:57 | 51.24844 | 9.29749 | 31398 ft | 490 kts | 32° |
| 2026-05-04 19:57 | 51.27761 | 9.32555 | 31629 ft | 490 kts | 25° |
| 2026-05-04 19:57 | 51.30883 | 9.34707 | 31906 ft | 487 kts | 16° |
| 2026-05-04 19:57 | 51.34130 | 9.36148 | 32240 ft | 483 kts | 9° |
| 2026-05-04 19:58 | 51.37416 | 9.37285 | 32565 ft | 483 kts | 9° |
| 2026-05-04 19:58 | 51.40695 | 9.38421 | 32886 ft | 482 kts | 9° |
| 2026-05-04 19:58 | 51.43973 | 9.39563 | 33218 ft | 482 kts | 8° |
| 2026-05-04 19:58 | 51.47247 | 9.40711 | 33535 ft | 481 kts | 8° |
| 2026-05-04 19:59 | 51.50516 | 9.41857 | 33852 ft | 481 kts | 8° |
| 2026-05-04 19:59 | 51.53787 | 9.43001 | 34151 ft | 480 kts | 8° |
| 2026-05-04 19:59 | 51.57049 | 9.44149 | 34424 ft | 480 kts | 8° |
| 2026-05-04 19:59 | 51.60309 | 9.45297 | 34692 ft | 479 kts | 8° |
| 2026-05-04 20:00 | 51.63562 | 9.46444 | 34959 ft | 479 kts | 8° |
| 2026-05-04 20:00 | 51.66817 | 9.47592 | 35239 ft | 478 kts | 8° |
| 2026-05-04 20:00 | 51.70065 | 9.48737 | 35511 ft | 478 kts | 8° |
| 2026-05-04 20:00 | 51.73314 | 9.49881 | 35789 ft | 477 kts | 8° |
| 2026-05-04 20:01 | 51.76550 | 9.51024 | 36054 ft | 476 kts | 8° |
| 2026-05-04 20:01 | 51.79784 | 9.52187 | 36327 ft | 476 kts | 11° |
| 2026-05-04 20:01 | 51.82936 | 9.53839 | 36579 ft | 479 kts | 20° |
| 2026-05-04 20:01 | 51.85929 | 9.56235 | 36809 ft | 481 kts | 29° |
| 2026-05-04 20:02 | 51.88823 | 9.59108 | 36969 ft | 481 kts | 29° |
| 2026-05-04 20:02 | 51.94507 | 9.64741 | 36996 ft | 477 kts | 29° |
| 2026-05-04 20:03 | 52.00175 | 9.70336 | 36998 ft | 477 kts | 29° |
| 2026-05-04 20:03 | 52.05831 | 9.75945 | 36994 ft | 476 kts | 29° |
| 2026-05-04 20:04 | 52.11482 | 9.81585 | 36986 ft | 476 kts | 29° |
| 2026-05-04 20:04 | 52.17127 | 9.87231 | 37004 ft | 476 kts | 29° |
| 2026-05-04 20:05 | 52.22768 | 9.92896 | 37004 ft | 476 kts | 29° |
| 2026-05-04 20:05 | 52.28401 | 9.98570 | 37013 ft | 476 kts | 29° |
| 2026-05-04 20:06 | 52.34031 | 10.04260 | 37032 ft | 476 kts | 29° |
| 2026-05-04 20:06 | 52.39659 | 10.09943 | 37002 ft | 475 kts | 29° |
| 2026-05-04 20:07 | 52.45284 | 10.15640 | 37001 ft | 475 kts | 29° |
| 2026-05-04 20:07 | 52.50899 | 10.21358 | 37004 ft | 475 kts | 29° |
| 2026-05-04 20:08 | 52.56506 | 10.27090 | 37019 ft | 475 kts | 29° |
| 2026-05-04 20:08 | 52.62119 | 10.32843 | 37015 ft | 475 kts | 29° |
| 2026-05-04 20:09 | 52.67726 | 10.38614 | 37011 ft | 475 kts | 29° |
| 2026-05-04 20:09 | 52.73371 | 10.44420 | 37001 ft | 475 kts | 29° |
| 2026-05-04 20:10 | 52.79017 | 10.50089 | 37014 ft | 475 kts | 28° |
| 2026-05-04 20:10 | 52.84681 | 10.55731 | 37004 ft | 475 kts | 28° |
| 2026-05-04 20:11 | 52.90330 | 10.61421 | 37002 ft | 476 kts | 28° |
| 2026-05-04 20:11 | 52.95975 | 10.67165 | 36998 ft | 476 kts | 29° |
| 2026-05-04 20:12 | 53.01614 | 10.72934 | 36987 ft | 476 kts | 29° |
| 2026-05-04 20:12 | 53.07253 | 10.78698 | 36996 ft | 476 kts | 29° |
| 2026-05-04 20:13 | 53.12896 | 10.84467 | 36999 ft | 476 kts | 29° |
| 2026-05-04 20:13 | 53.18536 | 10.90244 | 37001 ft | 476 kts | 29° |
| 2026-05-04 20:14 | 53.24162 | 10.96055 | 37021 ft | 476 kts | 29° |
| 2026-05-04 20:14 | 53.29786 | 11.01885 | 37010 ft | 476 kts | 29° |
| 2026-05-04 20:15 | 53.35413 | 11.07711 | 37003 ft | 475 kts | 29° |
| 2026-05-04 20:15 | 53.41035 | 11.13552 | 37001 ft | 475 kts | 29° |
| 2026-05-04 20:16 | 53.46652 | 11.19409 | 37002 ft | 475 kts | 29° |
| 2026-05-04 20:16 | 53.52262 | 11.25282 | 37013 ft | 475 kts | 28° |
| 2026-05-04 20:17 | 53.57856 | 11.31164 | 37011 ft | 474 kts | 29° |
| 2026-05-04 20:17 | 53.63437 | 11.37053 | 37013 ft | 473 kts | 29° |
| 2026-05-04 20:18 | 53.69011 | 11.42948 | 37011 ft | 473 kts | 29° |
| 2026-05-04 20:18 | 53.74584 | 11.48985 | 37019 ft | 473 kts | 31° |
| 2026-05-04 20:19 | 53.79920 | 11.55530 | 37024 ft | 474 kts | 34° |
| 2026-05-04 20:19 | 53.85151 | 11.62305 | 37002 ft | 473 kts | 34° |
| 2026-05-04 20:20 | 53.90405 | 11.69008 | 37006 ft | 472 kts | 33° |
| 2026-05-04 20:20 | 53.95688 | 11.75621 | 37024 ft | 472 kts | 33° |
| 2026-05-04 20:21 | 54.00978 | 11.82239 | 37011 ft | 472 kts | 33° |
| 2026-05-04 20:21 | 54.08897 | 11.92243 | 36999 ft | 473 kts | 33° |
| 2026-05-04 20:22 | 54.14207 | 11.98995 | 37011 ft | 473 kts | 33° |
| 2026-05-04 20:22 | 54.19472 | 12.05721 | 36999 ft | 472 kts | 33° |
| 2026-05-04 20:23 | 54.24972 | 12.11762 | 36997 ft | 470 kts | 27° |
| 2026-05-04 20:23 | 54.30573 | 12.17543 | 37001 ft | 471 kts | 27° |
| 2026-05-04 20:24 | 54.32872 | 12.19928 | 37003 ft | 471 kts | 27° |
| 2026-05-04 20:24 | 54.38167 | 12.25439 | 37001 ft | 471 kts | 28° |
| 2026-05-04 20:25 | 54.43768 | 12.31289 | 37010 ft | 471 kts | 27° |
| 2026-05-04 20:25 | 54.49363 | 12.37156 | 37007 ft | 471 kts | 28° |
| 2026-05-04 20:26 | 54.54952 | 12.43039 | 37006 ft | 471 kts | 28° |
| 2026-05-04 20:26 | 54.59638 | 12.47973 | 37000 ft | 471 kts | 28° |
| 2026-05-04 20:27 | 54.65225 | 12.53875 | 37015 ft | 471 kts | 28° |
| 2026-05-04 20:27 | 54.70815 | 12.59792 | 37005 ft | 471 kts | 28° |
| 2026-05-04 20:28 | 54.76403 | 12.65723 | 37002 ft | 471 kts | 28° |
| 2026-05-04 20:28 | 54.81985 | 12.71679 | 37002 ft | 471 kts | 28° |
| 2026-05-04 20:29 | 54.87565 | 12.77669 | 37019 ft | 472 kts | 28° |
| 2026-05-04 20:29 | 54.93068 | 12.84066 | 37004 ft | 473 kts | 32° |
| 2026-05-04 20:30 | 54.98405 | 12.90784 | 37001 ft | 474 kts | 33° |
| 2026-05-04 20:30 | 55.03739 | 12.97546 | 36998 ft | 474 kts | 32° |
| 2026-05-04 20:31 | 55.09067 | 13.04172 | 37021 ft | 473 kts | 32° |
| 2026-05-04 20:31 | 55.14421 | 13.10773 | 36977 ft | 470 kts | 32° |
| 2026-05-04 20:32 | 55.19758 | 13.17386 | 36981 ft | 470 kts | 32° |
| 2026-05-04 20:32 | 55.25089 | 13.24041 | 36981 ft | 471 kts | 32° |
| 2026-05-04 20:33 | 55.30411 | 13.30727 | 36981 ft | 471 kts | 32° |
| 2026-05-04 20:33 | 55.35771 | 13.37479 | 36978 ft | 471 kts | 32° |
| 2026-05-04 20:34 | 55.41126 | 13.44251 | 36963 ft | 471 kts | 32° |
| 2026-05-04 20:34 | 55.46453 | 13.51001 | 36965 ft | 472 kts | 32° |
| 2026-05-04 20:35 | 55.51782 | 13.57779 | 36969 ft | 473 kts | 32° |
| 2026-05-04 20:35 | 55.57111 | 13.64584 | 37001 ft | 473 kts | 32° |
| 2026-05-04 20:36 | 55.62432 | 13.71398 | 36986 ft | 472 kts | 32° |
| 2026-05-04 20:36 | 55.67746 | 13.78220 | 36986 ft | 471 kts | 32° |
| 2026-05-04 20:37 | 55.73049 | 13.85052 | 36981 ft | 471 kts | 32° |
| 2026-05-04 20:37 | 55.78344 | 13.91908 | 36977 ft | 471 kts | 32° |
| 2026-05-04 20:38 | 55.83631 | 13.98780 | 36987 ft | 470 kts | 33° |
| 2026-05-04 20:38 | 55.88906 | 14.05641 | 36979 ft | 469 kts | 33° |
| 2026-05-04 20:39 | 55.94176 | 14.12513 | 36976 ft | 469 kts | 33° |
| 2026-05-04 20:39 | 55.99433 | 14.19411 | 36977 ft | 469 kts | 33° |
| 2026-05-04 20:40 | 56.04715 | 14.26370 | 36958 ft | 467 kts | 33° |
| 2026-05-04 20:40 | 56.09940 | 14.33263 | 36956 ft | 466 kts | 33° |
| 2026-05-04 20:41 | 56.15162 | 14.40176 | 36962 ft | 467 kts | 33° |
| 2026-05-04 20:41 | 56.20385 | 14.47129 | 36959 ft | 467 kts | 33° |
| 2026-05-04 20:42 | 56.25608 | 14.54093 | 36982 ft | 468 kts | 33° |
| 2026-05-04 20:42 | 56.30829 | 14.61081 | 36958 ft | 468 kts | 33° |
| 2026-05-04 20:43 | 56.36085 | 14.68153 | 36959 ft | 468 kts | 33° |
| 2026-05-04 20:43 | 56.41299 | 14.75188 | 36953 ft | 468 kts | 33° |
| 2026-05-04 20:44 | 56.46517 | 14.82246 | 36949 ft | 468 kts | 33° |
| 2026-05-04 20:44 | 56.51728 | 14.89328 | 36947 ft | 468 kts | 33° |
| 2026-05-04 20:45 | 56.56935 | 14.96413 | 36939 ft | 468 kts | 33° |
| 2026-05-04 20:45 | 56.62140 | 15.03530 | 36934 ft | 469 kts | 33° |
| 2026-05-04 20:46 | 56.67384 | 15.10727 | 36936 ft | 469 kts | 33° |
| 2026-05-04 20:46 | 56.72591 | 15.17908 | 36943 ft | 470 kts | 33° |
| 2026-05-04 20:47 | 56.77801 | 15.25110 | 36938 ft | 470 kts | 33° |
| 2026-05-04 20:47 | 56.83016 | 15.32341 | 36931 ft | 471 kts | 33° |
| 2026-05-04 20:48 | 56.88233 | 15.39606 | 36922 ft | 472 kts | 33° |
| 2026-05-04 20:48 | 56.93478 | 15.46943 | 36913 ft | 471 kts | 33° |
| 2026-05-04 20:49 | 56.98689 | 15.54248 | 36914 ft | 471 kts | 33° |
| 2026-05-04 20:49 | 57.03892 | 15.61568 | 36896 ft | 472 kts | 33° |
| 2026-05-04 20:50 | 57.09095 | 15.68915 | 36892 ft | 472 kts | 33° |
| 2026-05-04 20:50 | 57.14305 | 15.76298 | 36900 ft | 473 kts | 33° |
| 2026-05-04 20:51 | 57.19506 | 15.83712 | 36899 ft | 473 kts | 34° |
| 2026-05-04 20:51 | 57.24708 | 15.91139 | 36881 ft | 473 kts | 33° |
| 2026-05-04 20:52 | 57.29915 | 15.98587 | 36881 ft | 473 kts | 33° |
| 2026-05-04 20:52 | 57.35118 | 16.06073 | 36879 ft | 474 kts | 34° |
| 2026-05-04 20:53 | 57.40320 | 16.13587 | 36882 ft | 474 kts | 34° |
| 2026-05-04 20:53 | 57.45557 | 16.21164 | 36864 ft | 474 kts | 33° |
| 2026-05-04 20:54 | 57.50735 | 16.28707 | 36797 ft | 474 kts | 34° |
| 2026-05-04 20:54 | 57.53328 | 16.32493 | 36526 ft | 473 kts | 33° |
| 2026-05-04 20:54 | 57.55044 | 16.35001 | 36344 ft | 473 kts | 33° |
| 2026-05-04 20:55 | 57.57643 | 16.38758 | 36096 ft | 472 kts | 30° |
| 2026-05-04 20:55 | 57.60388 | 16.42046 | 35842 ft | 469 kts | 27° |
| 2026-05-04 20:55 | 57.63158 | 16.45255 | 35583 ft | 469 kts | 26° |
| 2026-05-04 20:55 | 57.65920 | 16.48472 | 35333 ft | 467 kts | 26° |
| 2026-05-04 20:56 | 57.68671 | 16.51685 | 35094 ft | 465 kts | 26° |
| 2026-05-04 20:56 | 57.71409 | 16.54885 | 34845 ft | 463 kts | 26° |
| 2026-05-04 20:56 | 57.74131 | 16.58069 | 34570 ft | 461 kts | 26° |
| 2026-05-04 20:56 | 57.76878 | 16.61284 | 34327 ft | 458 kts | 26° |
| 2026-05-04 20:57 | 57.79573 | 16.64443 | 34092 ft | 456 kts | 26° |
| 2026-05-04 20:57 | 57.82254 | 16.67591 | 33849 ft | 453 kts | 26° |
| 2026-05-04 20:57 | 57.84907 | 16.70717 | 33506 ft | 447 kts | 26° |
| 2026-05-04 20:57 | 57.87527 | 16.73812 | 33054 ft | 442 kts | 26° |
| 2026-05-04 20:58 | 57.90118 | 16.76877 | 32619 ft | 437 kts | 26° |
| 2026-05-04 20:58 | 57.92674 | 16.79905 | 32203 ft | 433 kts | 26° |
| 2026-05-04 20:58 | 57.95212 | 16.82911 | 31729 ft | 429 kts | 25° |
| 2026-05-04 20:58 | 57.97726 | 16.85895 | 31303 ft | 425 kts | 25° |
| 2026-05-04 20:59 | 58.00216 | 16.88856 | 30881 ft | 421 kts | 25° |
| 2026-05-04 20:59 | 58.02681 | 16.91794 | 30462 ft | 418 kts | 25° |
| 2026-05-04 20:59 | 58.05126 | 16.94715 | 30052 ft | 414 kts | 25° |
| 2026-05-04 20:59 | 58.07554 | 16.97614 | 29607 ft | 411 kts | 25° |
| 2026-05-04 21:00 | 58.09954 | 17.00485 | 29217 ft | 406 kts | 25° |
| 2026-05-04 21:00 | 58.12321 | 17.03325 | 28823 ft | 401 kts | 25° |
| 2026-05-04 21:00 | 58.14661 | 17.06135 | 28448 ft | 395 kts | 25° |
| 2026-05-04 21:00 | 58.16976 | 17.08917 | 28083 ft | 393 kts | 25° |
| 2026-05-04 21:01 | 58.19283 | 17.11693 | 27713 ft | 392 kts | 25° |
| 2026-05-04 21:01 | 58.21582 | 17.14463 | 27351 ft | 391 kts | 25° |
| 2026-05-04 21:01 | 58.23870 | 17.17228 | 26987 ft | 389 kts | 25° |
| 2026-05-04 21:01 | 58.26144 | 17.19983 | 26629 ft | 387 kts | 25° |
| 2026-05-04 21:02 | 58.28401 | 17.22728 | 26275 ft | 384 kts | 25° |
| 2026-05-04 21:02 | 58.30675 | 17.25500 | 25917 ft | 382 kts | 25° |
| 2026-05-04 21:02 | 58.32901 | 17.28216 | 25551 ft | 379 kts | 25° |
| 2026-05-04 21:02 | 58.35118 | 17.30922 | 25185 ft | 377 kts | 25° |
| 2026-05-04 21:03 | 58.37318 | 17.33600 | 24823 ft | 376 kts | 24° |
| 2026-05-04 21:03 | 58.39587 | 17.36337 | 24455 ft | 392 kts | 25° |
| 2026-05-04 21:03 | 58.41905 | 17.39147 | 24125 ft | 395 kts | 25° |
| 2026-05-04 21:03 | 58.44219 | 17.41974 | 23775 ft | 396 kts | 25° |
| 2026-05-04 21:04 | 58.46535 | 17.44824 | 23426 ft | 395 kts | 25° |
| 2026-05-04 21:04 | 58.48836 | 17.47671 | 23022 ft | 393 kts | 25° |
| 2026-05-04 21:04 | 58.51120 | 17.50506 | 22609 ft | 390 kts | 25° |
| 2026-05-04 21:04 | 58.53393 | 17.53323 | 22188 ft | 388 kts | 25° |
| 2026-05-04 21:05 | 58.55648 | 17.56118 | 21788 ft | 385 kts | 25° |
| 2026-05-04 21:05 | 58.57886 | 17.58893 | 21394 ft | 382 kts | 25° |
| 2026-05-04 21:05 | 58.60113 | 17.61654 | 21009 ft | 380 kts | 25° |
| 2026-05-04 21:05 | 58.62348 | 17.64419 | 20127 ft | 388 kts | 25° |
| 2026-05-04 21:06 | 58.64620 | 17.67218 | 19232 ft | 386 kts | 26° |
| 2026-05-04 21:06 | 58.66865 | 17.70004 | 18207 ft | 382 kts | 26° |
| 2026-05-04 21:06 | 58.69081 | 17.72771 | 17219 ft | 374 kts | 26° |
| 2026-05-04 21:06 | 58.71178 | 17.75422 | 16904 ft | 348 kts | 26° |
| 2026-05-04 21:07 | 58.73171 | 17.77946 | 16502 ft | 341 kts | 26° |
| 2026-05-04 21:07 | 58.75150 | 17.80429 | 16090 ft | 338 kts | 25° |
| 2026-05-04 21:07 | 58.77116 | 17.82888 | 15682 ft | 336 kts | 25° |
| 2026-05-04 21:07 | 58.79069 | 17.85327 | 15278 ft | 334 kts | 26° |
| 2026-05-04 21:08 | 58.81037 | 17.87788 | 14872 ft | 331 kts | 25° |
| 2026-05-04 21:08 | 58.83039 | 17.89847 | 14521 ft | 324 kts | 18° |
| 2026-05-04 21:08 | 58.85121 | 17.91773 | 14222 ft | 337 kts | 18° |
| 2026-05-04 21:08 | 58.87243 | 17.93757 | 13903 ft | 340 kts | 19° |
| 2026-05-04 21:09 | 58.89367 | 17.95765 | 13584 ft | 339 kts | 19° |
| 2026-05-04 21:09 | 58.91481 | 17.97775 | 13237 ft | 338 kts | 19° |
| 2026-05-04 21:09 | 58.93586 | 17.99782 | 12916 ft | 337 kts | 19° |
| 2026-05-04 21:09 | 58.95683 | 18.01783 | 12590 ft | 335 kts | 19° |
| 2026-05-04 21:10 | 58.97770 | 18.03773 | 12272 ft | 333 kts | 19° |
| 2026-05-04 21:10 | 58.99843 | 18.05744 | 11962 ft | 330 kts | 20° |
| 2026-05-04 21:10 | 59.01897 | 18.07694 | 11649 ft | 328 kts | 20° |
| 2026-05-04 21:10 | 59.03939 | 18.09635 | 11349 ft | 325 kts | 20° |
| 2026-05-04 21:11 | 59.05964 | 18.11562 | 11032 ft | 323 kts | 20° |
| 2026-05-04 21:11 | 59.07972 | 18.13477 | 10725 ft | 320 kts | 20° |
| 2026-05-04 21:11 | 59.10064 | 18.14944 | 10421 ft | 311 kts | 7° |
| 2026-05-04 21:11 | 59.12173 | 18.15498 | 10133 ft | 302 kts | 356° |
| 2026-05-04 21:12 | 59.14250 | 18.15727 | 9923 ft | 293 kts | 357° |
| 2026-05-04 21:12 | 59.16238 | 18.15967 | 9854 ft | 279 kts | 356° |
| 2026-05-04 21:12 | 59.18131 | 18.16204 | 9789 ft | 267 kts | 356° |
| 2026-05-04 21:12 | 59.19997 | 18.16425 | 9761 ft | 271 kts | 357° |
| 2026-05-04 21:13 | 59.21889 | 18.16636 | 9704 ft | 273 kts | 357° |
| 2026-05-04 21:13 | 59.23786 | 18.16850 | 9642 ft | 273 kts | 357° |
| 2026-05-04 21:13 | 59.25708 | 18.17072 | 9576 ft | 273 kts | 357° |
| 2026-05-04 21:13 | 59.27601 | 18.17297 | 9508 ft | 272 kts | 357° |
| 2026-05-04 21:14 | 59.29494 | 18.17525 | 9442 ft | 272 kts | 357° |
| 2026-05-04 21:14 | 59.31383 | 18.17751 | 9221 ft | 271 kts | 357° |
| 2026-05-04 21:14 | 59.33257 | 18.17976 | 8904 ft | 269 kts | 357° |
| 2026-05-04 21:14 | 59.35114 | 18.18198 | 8577 ft | 266 kts | 357° |
| 2026-05-04 21:15 | 59.36957 | 18.18416 | 8243 ft | 264 kts | 358° |
| 2026-05-04 21:15 | 59.38787 | 18.18629 | 7918 ft | 262 kts | 358° |
| 2026-05-04 21:15 | 59.40598 | 18.18840 | 7592 ft | 260 kts | 358° |
| 2026-05-04 21:15 | 59.42401 | 18.19058 | 7273 ft | 258 kts | 358° |
| 2026-05-04 21:16 | 59.44206 | 18.19278 | 6945 ft | 256 kts | 358° |
| 2026-05-04 21:16 | 59.45975 | 18.19489 | 6625 ft | 254 kts | 358° |
| 2026-05-04 21:16 | 59.47730 | 18.19696 | 6313 ft | 251 kts | 358° |
| 2026-05-04 21:16 | 59.49471 | 18.19898 | 6004 ft | 250 kts | 358° |
| 2026-05-04 21:17 | 59.51175 | 18.20095 | 5674 ft | 247 kts | 358° |
| 2026-05-04 21:17 | 59.52902 | 18.20353 | 5370 ft | 246 kts | 3° |
| 2026-05-04 21:17 | 59.54552 | 18.21237 | 5080 ft | 248 kts | 18° |
| 2026-05-04 21:17 | 59.56067 | 18.22711 | 4900 ft | 242 kts | 22° |
| 2026-05-04 21:18 | 59.57542 | 18.24273 | 4680 ft | 235 kts | 23° |
| 2026-05-04 21:18 | 59.58954 | 18.25786 | 4374 ft | 233 kts | 23° |
| 2026-05-04 21:18 | 59.60380 | 18.27314 | 4043 ft | 233 kts | 23° |
| 2026-05-04 21:18 | 59.61801 | 18.28845 | 3709 ft | 233 kts | 22° |
| 2026-05-04 21:19 | 59.63228 | 18.30324 | 3368 ft | 228 kts | 13° |
| 2026-05-04 21:19 | 59.64741 | 18.30730 | 3033 ft | 216 kts | 351° |
| 2026-05-04 21:19 | 59.66199 | 18.30338 | 2711 ft | 207 kts | 334° |
| 2026-05-04 21:19 | 59.67430 | 18.29143 | 2539 ft | 188 kts | 317° |
| 2026-05-04 21:20 | 59.68346 | 18.27431 | 2499 ft | 177 kts | 302° |
| 2026-05-04 21:20 | 59.68951 | 18.25419 | 2499 ft | 160 kts | 289° |
| 2026-05-04 21:20 | 59.69244 | 18.23423 | 2499 ft | 141 kts | 277° |
| 2026-05-04 21:20 | 59.69291 | 18.21529 | 2472 ft | 136 kts | 266° |
| 2026-05-04 21:21 | 59.69131 | 18.19704 | 2363 ft | 134 kts | 258° |
| 2026-05-04 21:21 | 59.68908 | 18.17926 | 2208 ft | 133 kts | 259° |
| 2026-05-04 21:21 | 59.68686 | 18.16154 | 2055 ft | 132 kts | 258° |
| 2026-05-04 21:21 | 59.68466 | 18.14402 | 1880 ft | 131 kts | 258° |
| 2026-05-04 21:22 | 59.68247 | 18.12655 | 1704 ft | 131 kts | 258° |
| 2026-05-04 21:22 | 59.68029 | 18.10914 | 1520 ft | 130 kts | 258° |
| 2026-05-04 21:22 | 59.67809 | 18.09173 | 1339 ft | 130 kts | 257° |
| 2026-05-04 21:22 | 59.67589 | 18.07410 | 1160 ft | 132 kts | 256° |
| 2026-05-04 21:23 | 59.67369 | 18.05647 | 957 ft | 132 kts | 256° |
| 2026-05-04 21:23 | 59.67143 | 18.03885 | 783 ft | 132 kts | 255° |
| 2026-05-04 21:23 | 59.66923 | 18.02131 | 606 ft | 131 kts | 254° |
| 2026-05-04 21:23 | 59.66704 | 18.00403 | 439 ft | 130 kts | 254° |
| 2026-05-04 21:24 | 59.66559 | 17.99264 | 323 ft | 128 kts | 253° |
| 2026-05-04 21:24 | 59.66344 | 17.97561 | 156 ft | 128 kts | 253° |
| 2026-05-04 21:24 | 59.66151 | 17.96017 | 121 ft | 86 kts | 258° |
| 2026-05-04 21:24 | 59.66062 | 17.95331 | 118 ft | 37 kts | 254° |
| 2026-05-04 21:25 | 59.65992 | 17.94840 | 122 ft | 20 kts | 244° |
| 2026-05-04 21:25 | 59.65943 | 17.94683 | 120 ft | 21 kts | 233° |
| 2026-05-04 21:25 | 59.65846 | 17.94479 | 122 ft | 20 kts | 225° |
| 2026-05-04 21:25 | 59.65767 | 17.94314 | 120 ft | 16 kts | 227° |
| 2026-05-04 21:26 | 59.65681 | 17.94135 | 120 ft | 19 kts | 226° |
| 2026-05-04 21:26 | 59.65614 | 17.93913 | 114 ft | 17 kts | 250° |
| 2026-05-04 21:26 | 59.65578 | 17.93665 | 113 ft | 20 kts | 255° |
| 2026-05-04 21:26 | 59.65548 | 17.93428 | 112 ft | 12 kts | 256° |
| 2026-05-04 21:27 | 59.65504 | 17.93350 | 112 ft | 9 kts | 190° |
| 2026-05-04 21:27 | 59.65450 | 17.93273 | 111 ft | 11 kts | 238° |
| 2026-05-04 21:27 | 59.65384 | 17.93266 | 112 ft | 9 kts | 169° |
| 2026-05-04 21:27 | 59.65350 | 17.93243 | 112 ft | 5 kts | 237° |
| 2026-05-04 21:28 | 59.65338 | 17.93179 | 112 ft | 2 kts | 251° |
| 2026-05-04 21:28 | 59.65333 | 17.93153 | 112 ft | 1 kts | 250° |
| 2026-05-04 21:28 | 59.65331 | 17.93145 | 112 ft | 0 kts | 250° |